Time;durP1;ratioP1;P1;durP2;ratioP2;P2;SDS_P1;SDS_P2;PMS_P1;PMS_P2;Temp;Humidity;BMP_temperature;BMP_pressure;BME280_temperature;BME280_humidity;BME280_pressure;Samples;Min_cycle;Max_cycle;Signal;HPM_P1;HPM_P2
2023/03/13 00:01:46;;;;;;;4.80;3.60;;;;;;;8.13;42.86;94857.44;4989787;28;20264;-47
2023/03/13 00:04:13;;;;;;;5.00;3.93;;;;;;;8.10;42.89;94857.66;4990132;28;20192;-46
2023/03/13 00:06:41;;;;;;;3.73;3.43;;;;;;;8.09;42.72;94849.22;4990142;28;20217;-48
2023/03/13 00:09:09;;;;;;;4.07;3.67;;;;;;;8.07;42.83;94856.16;4989699;28;20574;-50
2023/03/13 00:11:38;;;;;;;3.77;3.40;;;;;;;8.05;42.76;94852.94;4989060;28;20189;-57
2023/03/13 00:14:06;;;;;;;3.80;3.10;;;;;;;8.04;42.90;94861.50;4989345;28;20193;-54
2023/03/13 00:16:34;;;;;;;3.47;3.00;;;;;;;8.01;42.86;94851.53;4989743;28;20673;-53
2023/03/13 00:19:01;;;;;;;4.30;3.37;;;;;;;8.00;42.88;94863.47;4970217;28;20200;-57
2023/03/13 00:21:29;;;;;;;3.97;3.20;;;;;;;7.97;42.97;94858.59;4970852;28;20186;-53
2023/03/13 00:23:56;;;;;;;3.50;3.20;;;;;;;7.95;42.97;94868.13;4970160;28;20280;-49
2023/03/13 00:26:24;;;;;;;4.93;3.60;;;;;;;7.94;42.99;94866.47;4970093;28;20220;-49
2023/03/13 00:28:53;;;;;;;3.70;3.30;;;;;;;7.93;42.97;94867.41;4970068;28;20558;-49
2023/03/13 00:31:22;;;;;;;4.17;3.47;;;;;;;7.91;42.98;94860.81;4970145;28;20219;-48
2023/03/13 00:33:50;;;;;;;4.70;3.43;;;;;;;7.92;43.08;94870.06;4989820;28;20274;-48
2023/03/13 00:36:19;;;;;;;4.93;3.70;;;;;;;7.89;43.15;94868.56;4989431;28;20255;-49
2023/03/13 00:38:47;;;;;;;5.40;3.63;;;;;;;7.87;43.14;94865.34;4987810;28;20224;-48
2023/03/13 00:41:15;;;;;;;5.63;3.27;;;;;;;7.87;43.13;94869.63;4989729;28;20685;-49
2023/03/13 00:43:43;;;;;;;3.90;3.40;;;;;;;7.84;43.29;94873.19;4989325;28;20211;-50
2023/03/13 00:46:13;;;;;;;3.30;3.00;;;;;;;7.83;43.05;94866.50;4991180;28;20196;-47
2023/03/13 00:48:40;;;;;;;6.60;3.77;;;;;;;7.81;43.40;94868.34;4993026;28;20262;-49
2023/03/13 00:51:07;;;;;;;4.37;3.20;;;;;;;7.81;43.06;94865.78;4993579;28;20819;-47
2023/03/13 00:53:34;;;;;;;3.43;3.13;;;;;;;7.79;43.35;94872.75;4993486;28;20201;-50
2023/03/13 00:56:03;;;;;;;3.63;3.33;;;;;;;7.76;43.40;94861.03;4993407;28;20220;-52
2023/03/13 00:58:33;;;;;;;6.43;3.70;;;;;;;7.76;43.37;94871.22;4993641;28;20291;-48
2023/03/13 01:01:07;;;;;;;5.47;3.70;;;;;;;7.73;43.37;94865.59;4992791;28;20201;-47
2023/03/13 01:03:36;;;;;;;4.23;3.67;;;;;;;7.72;43.47;94859.66;4991460;28;20290;-51
2023/03/13 01:06:06;;;;;;;4.23;3.50;;;;;;;7.71;43.55;94858.03;4992845;28;20197;-52
2023/03/13 01:08:33;;;;;;;4.90;3.40;;;;;;;7.68;43.52;94860.81;4992892;28;20723;-51
2023/03/13 01:11:00;;;;;;;4.10;3.37;;;;;;;7.65;43.49;94858.53;4993436;28;20200;-48
2023/03/13 01:13:28;;;;;;;3.70;3.30;;;;;;;7.65;43.53;94855.97;4993314;28;20193;-48
2023/03/13 01:15:54;;;;;;;5.83;3.70;;;;;;;7.60;43.53;94849.59;4992845;28;20189;-53
2023/03/13 01:18:22;;;;;;;3.70;3.40;;;;;;;7.61;43.60;94853.78;4992977;28;20280;-48
2023/03/13 01:20:50;;;;;;;5.00;3.47;;;;;;;7.56;43.71;94854.13;4992399;28;20189;-53
2023/03/13 01:23:17;;;;;;;5.70;4.10;;;;;;;7.60;43.66;94857.22;4992953;28;20806;-54
2023/03/13 01:25:43;;;;;;;4.37;3.90;;;;;;;7.57;43.78;94857.47;4993080;28;20642;-53
2023/03/13 01:28:10;;;;;;;4.53;3.63;;;;;;;7.57;43.80;94862.56;4993154;28;20236;-47
2023/03/13 01:30:37;;;;;;;5.20;4.07;;;;;;;7.56;43.74;94869.41;4992441;28;20248;-48
2023/03/13 01:33:04;;;;;;;4.80;3.70;;;;;;;7.54;43.85;94868.69;4992731;28;20662;-52
2023/03/13 01:35:30;;;;;;;4.43;3.63;;;;;;;7.52;43.94;94879.00;4992353;28;20590;-50
2023/03/13 01:37:59;;;;;;;4.10;3.60;;;;;;;7.52;43.85;94875.63;4992815;28;20196;-46
2023/03/13 01:40:25;;;;;;;5.77;3.47;;;;;;;7.52;43.78;94875.63;4992343;28;20586;-47
2023/03/13 01:42:54;;;;;;;4.43;3.67;;;;;;;7.50;43.82;94880.81;4993057;28;20208;-50
2023/03/13 01:45:53;;;;;;;4.33;3.63;;;;;;;7.47;43.85;94875.97;4992002;28;20665;-49
2023/03/13 01:48:21;;;;;;;5.30;3.57;;;;;;;7.46;44.00;94876.88;4993074;28;20314;-48
2023/03/13 01:50:48;;;;;;;4.07;3.67;;;;;;;7.44;43.89;94877.94;4992001;28;20637;-47
2023/03/13 01:53:16;;;;;;;4.17;3.63;;;;;;;7.43;43.97;94877.13;4992732;28;20204;-46
2023/03/13 01:55:43;;;;;;;5.70;3.70;;;;;;;7.42;44.11;94878.03;4992425;28;20232;-54
2023/03/13 01:58:10;;;;;;;4.23;3.83;;;;;;;7.41;44.03;94875.63;4992261;28;20650;-54
2023/03/13 02:00:38;;;;;;;5.47;3.93;;;;;;;7.39;44.11;94869.84;4991907;28;20197;-56
2023/03/13 02:03:08;;;;;;;6.00;4.10;;;;;;;7.38;44.19;94871.56;4992500;28;20193;-54
2023/03/13 02:05:36;;;;;;;6.53;3.63;;;;;;;7.37;44.32;94869.13;4992547;28;20192;-49
2023/03/13 02:08:07;;;;;;;4.47;3.70;;;;;;;7.37;44.18;94872.47;4992190;28;20237;-49
2023/03/13 02:10:43;;;;;;;4.27;3.87;;;;;;;7.33;44.39;94868.53;4992288;28;20200;-51
2023/03/13 02:13:13;;;;;;;4.70;3.90;;;;;;;7.31;44.36;94878.03;4992063;28;20196;-53
2023/03/13 02:15:41;;;;;;;4.73;3.80;;;;;;;7.31;44.11;94878.03;4991574;28;20200;-55
2023/03/13 02:18:08;;;;;;;5.67;4.27;;;;;;;7.31;44.46;94890.75;4992231;28;20196;-51
2023/03/13 02:20:35;;;;;;;4.70;3.50;;;;;;;7.30;44.50;94889.16;4991388;28;20634;-52
2023/03/13 02:23:07;;;;;;;7.17;4.40;;;;;;;7.28;44.53;94891.78;4992209;28;20620;-52
2023/03/13 02:25:43;;;;;;;6.73;4.23;;;;;;;7.27;44.52;94895.25;4992922;28;20193;-53
2023/03/13 02:28:16;;;;;;;6.50;4.07;;;;;;;7.26;44.53;94900.47;4992899;28;20676;-52
2023/03/13 02:30:44;;;;;;;5.87;4.30;;;;;;;7.24;44.66;94903.09;4972340;28;20202;-51
2023/03/13 02:33:12;;;;;;;6.27;3.93;;;;;;;7.21;44.70;94894.88;4985933;28;20190;-54
2023/03/13 02:35:39;;;;;;;6.33;3.90;;;;;;;7.22;44.88;94912.59;4991490;28;20189;-50
2023/03/13 02:38:10;;;;;;;6.10;4.33;;;;;;;7.22;44.84;94916.88;4992139;28;20191;-50
2023/03/13 02:40:40;;;;;;;5.07;3.57;;;;;;;7.19;44.63;94917.88;4991566;28;20192;-50
2023/03/13 02:43:12;;;;;;;6.70;3.73;;;;;;;7.20;44.95;94923.78;4991480;28;20216;-54
2023/03/13 02:45:39;;;;;;;6.07;3.87;;;;;;;7.18;44.69;94936.63;4991155;28;20199;-52
2023/03/13 02:48:06;;;;;;;4.70;4.30;;;;;;;7.17;44.77;94939.28;4991637;28;20334;-55
2023/03/13 02:50:37;;;;;;;4.60;3.73;;;;;;;7.16;44.79;94940.19;4991793;28;20193;-55
2023/03/13 02:53:07;;;;;;;6.47;3.80;;;;;;;7.14;44.84;94936.97;4991782;28;20233;-53
2023/03/13 02:55:39;;;;;;;4.73;4.03;;;;;;;7.13;44.84;94935.34;4991071;28;20373;-51
2023/03/13 02:58:08;;;;;;;7.03;4.30;;;;;;;7.12;44.92;94938.78;4991535;28;20274;-55
2023/03/13 03:00:35;;;;;;;7.10;3.87;;;;;;;7.12;45.01;94942.13;4991671;28;20517;-56
2023/03/13 03:03:02;;;;;;;3.97;3.57;;;;;;;7.10;44.96;94938.91;4991491;28;20181;-49
2023/03/13 03:05:29;;;;;;;5.03;3.90;;;;;;;7.08;45.09;94935.69;4991307;28;20665;-49
2023/03/13 03:07:56;;;;;;;4.97;3.93;;;;;;;7.08;45.11;94939.91;4989706;28;20221;-56
2023/03/13 03:10:23;;;;;;;4.43;4.00;;;;;;;7.06;45.14;94934.16;4991027;28;20189;-56
2023/03/13 03:12:50;;;;;;;4.73;4.23;;;;;;;7.06;45.12;94939.25;4991326;28;21077;-54
2023/03/13 03:15:18;;;;;;;7.03;4.27;;;;;;;7.03;45.16;94941.06;4990850;28;20605;-55
2023/03/13 03:17:45;;;;;;;4.83;4.33;;;;;;;7.03;45.25;94950.44;4990923;28;20208;-50
2023/03/13 03:20:12;;;;;;;6.17;4.90;;;;;;;7.03;45.18;94955.50;4990343;28;20621;-50
2023/03/13 03:22:39;;;;;;;6.43;4.47;;;;;;;7.00;45.12;94969.28;4990418;28;20263;-54
2023/03/13 03:25:08;;;;;;;7.13;4.23;;;;;;;6.99;45.29;94977.81;4990677;28;20295;-57
2023/03/13 03:27:35;;;;;;;7.13;4.17;;;;;;;6.96;45.36;94977.22;4990458;28;20224;-56
2023/03/13 03:30:02;;;;;;;6.07;3.93;;;;;;;6.90;45.31;94973.38;4990677;28;20200;-50
2023/03/13 03:32:30;;;;;;;5.77;4.00;;;;;;;6.93;45.35;94977.44;4990269;28;20310;-55
2023/03/13 03:34:57;;;;;;;7.13;4.33;;;;;;;6.95;45.35;94980.66;4990369;28;20201;-54
2023/03/13 03:37:24;;;;;;;4.00;3.63;;;;;;;6.93;45.17;94977.44;4990321;28;20649;-52
2023/03/13 03:39:50;;;;;;;5.27;4.00;;;;;;;6.91;45.38;94977.56;4990632;28;20197;-56
2023/03/13 03:42:17;;;;;;;5.40;4.30;;;;;;;6.90;45.30;94990.34;4990154;28;20189;-54
2023/03/13 03:44:44;;;;;;;5.70;3.90;;;;;;;6.88;45.60;94994.75;4990140;28;20193;-56
2023/03/13 03:47:10;;;;;;;6.07;3.93;;;;;;;6.87;45.69;95003.31;4990161;28;20185;-50
2023/03/13 03:49:39;;;;;;;5.87;4.50;;;;;;;6.86;45.66;95009.28;4989944;28;20196;-51
2023/03/13 03:52:06;;;;;;;4.30;3.70;;;;;;;6.85;45.76;95012.75;4989972;28;20193;-49
2023/03/13 03:54:33;;;;;;;4.80;4.30;;;;;;;6.83;45.75;95012.06;4989893;28;20193;-54
2023/03/13 03:57:00;;;;;;;6.07;4.30;;;;;;;6.81;45.64;95004.53;4990172;28;20319;-52
2023/03/13 03:59:27;;;;;;;5.30;4.23;;;;;;;6.80;45.79;95015.63;4990125;28;20197;-52
2023/03/13 04:01:54;;;;;;;5.47;4.43;;;;;;;6.74;45.87;95014.31;4990396;28;20192;-50
2023/03/13 04:04:20;;;;;;;6.13;4.57;;;;;;;6.62;45.93;94996.56;4990189;28;20559;-54
2023/03/13 04:06:49;;;;;;;6.30;4.37;;;;;;;6.74;46.09;95018.59;4990012;28;20251;-51
2023/03/13 04:09:15;;;;;;;7.30;4.90;;;;;;;6.73;46.15;95024.56;4989318;28;20208;-53
2023/03/13 04:11:42;;;;;;;6.73;5.20;;;;;;;6.72;46.13;95028.03;4989790;28;20193;-58
2023/03/13 04:14:09;;;;;;;7.53;5.23;;;;;;;6.70;45.91;95033.25;4989781;28;20596;-58
2023/03/13 04:16:36;;;;;;;6.37;5.17;;;;;;;6.69;46.14;95038.41;4989414;28;20270;-50
2023/03/13 04:19:02;;;;;;;6.97;5.63;;;;;;;6.67;46.38;95041.06;4989316;28;20201;-48
2023/03/13 04:21:29;;;;;;;8.83;5.83;;;;;;;6.67;46.32;95043.59;4989296;28;20641;-55
2023/03/13 04:23:57;;;;;;;11.20;5.50;;;;;;;6.65;46.53;95052.25;4990106;28;20267;-48
2023/03/13 04:26:24;;;;;;;12.90;6.70;;;;;;;6.63;46.37;95052.34;4989591;28;20193;-51
2023/03/13 04:28:51;;;;;;;9.20;5.87;;;;;;;6.62;46.47;95055.81;4989867;28;20231;-52
2023/03/13 04:31:18;;;;;;;7.47;5.80;;;;;;;6.62;46.54;95057.56;4988982;28;20615;-55
2023/03/13 04:33:44;;;;;;;8.97;6.07;;;;;;;6.62;46.56;95065.19;4989581;28;20201;-49
2023/03/13 04:36:11;;;;;;;7.07;5.57;;;;;;;6.60;46.50;95067.81;4989285;28;20189;-48
2023/03/13 04:38:38;;;;;;;7.07;5.13;;;;;;;6.59;46.79;95080.63;4989639;28;20256;-54
2023/03/13 04:41:06;;;;;;;7.77;5.83;;;;;;;6.56;46.62;95083.34;4989660;28;20189;-52
2023/03/13 04:43:33;;;;;;;6.60;5.20;;;;;;;6.55;46.54;95080.00;4989868;28;20201;-53
2023/03/13 04:46:00;;;;;;;7.70;6.07;;;;;;;6.56;46.81;95081.63;4989795;28;20193;-52
2023/03/13 04:48:27;;;;;;;9.63;5.87;;;;;;;6.58;46.52;95087.44;4989352;28;20231;-55
2023/03/13 04:50:53;;;;;;;9.17;5.60;;;;;;;6.58;46.74;95092.50;4989223;28;20208;-51
2023/03/13 04:53:20;;;;;;;11.13;6.10;;;;;;;6.59;46.75;95095.88;4989299;28;20208;-49
2023/03/13 04:55:49;;;;;;;7.97;5.60;;;;;;;6.62;46.73;95093.94;4989332;28;20236;-55
2023/03/13 04:58:17;;;;;;;10.67;6.50;;;;;;;6.64;46.87;95089.56;4989224;28;20188;-54
2023/03/13 05:00:44;;;;;;;9.83;5.77;;;;;;;6.67;46.80;95093.63;4988619;28;20204;-47
2023/03/13 05:03:11;;;;;;;9.00;5.40;;;;;;;6.69;46.72;95091.78;4988957;28;20192;-47
2023/03/13 05:05:38;;;;;;;11.70;5.43;;;;;;;6.74;46.65;95088.03;4989021;28;20200;-49
2023/03/13 05:08:05;;;;;;;10.63;5.77;;;;;;;6.82;46.54;95090.03;4988232;28;20217;-53
2023/03/13 05:10:32;;;;;;;8.97;5.87;;;;;;;6.91;46.49;95091.97;4988753;28;20240;-49
2023/03/13 05:12:58;;;;;;;8.57;6.13;;;;;;;7.07;46.37;95096.78;4989069;28;20720;-50
2023/03/13 05:15:27;;;;;;;8.97;6.07;;;;;;;7.30;46.10;95105.38;4989067;28;20263;-47
2023/03/13 05:17:53;;;;;;;9.10;5.77;;;;;;;7.65;45.69;95112.25;4988805;28;20193;-53
2023/03/13 05:20:20;;;;;;;9.03;5.60;;;;;;;8.10;45.58;95104.72;4988116;28;20212;-48
2023/03/13 05:22:47;;;;;;;7.47;5.60;;;;;;;8.62;45.14;95106.78;4989129;28;20197;-54
2023/03/13 05:25:14;;;;;;;9.57;5.60;;;;;;;9.23;45.04;95119.16;4988979;28;20197;-49
2023/03/13 05:27:40;;;;;;;10.30;5.40;;;;;;;9.89;44.86;95122.44;4989014;28;20193;-52
2023/03/13 05:30:08;;;;;;;7.83;5.20;;;;;;;10.59;44.45;95122.78;4988640;28;20200;-50
2023/03/13 05:32:37;;;;;;;13.00;5.50;;;;;;;11.31;43.73;95127.75;4991299;28;20653;-53
2023/03/13 05:35:04;;;;;;;8.63;5.30;;;;;;;12.09;43.52;95120.16;4992486;28;20216;-53
2023/03/13 05:37:31;;;;;;;8.77;5.43;;;;;;;12.88;43.07;95119.84;4992452;28;20193;-53
2023/03/13 05:39:57;;;;;;;7.63;5.30;;;;;;;13.69;42.23;95125.13;4992993;28;20288;-55
2023/03/13 05:42:25;;;;;;;6.27;4.97;;;;;;;14.50;41.73;95119.84;4992554;28;20197;-50
2023/03/13 05:44:52;;;;;;;7.60;4.70;;;;;;;15.37;40.81;95126.56;4992671;28;20283;-49
2023/03/13 05:47:19;;;;;;;10.90;5.47;;;;;;;16.17;40.03;95126.06;4992639;28;20220;-50
2023/03/13 05:49:47;;;;;;;8.43;4.67;;;;;;;17.01;39.47;95127.41;4992405;28;20213;-50
2023/03/13 05:52:14;;;;;;;5.87;3.80;;;;;;;17.89;52.89;95140.13;4992497;28;20593;-55
2023/03/13 05:54:41;;;;;;;8.33;4.23;;;;;;;18.76;52.02;95132.81;4992451;28;20201;-52
2023/03/13 05:57:08;;;;;;;8.43;5.03;;;;;;;19.55;49.97;95140.03;4992508;28;20229;-51
2023/03/13 05:59:34;;;;;;;6.43;4.33;;;;;;;20.23;48.21;95143.16;4992611;28;20196;-52
2023/03/13 06:02:01;;;;;;;9.57;4.60;;;;;;;20.87;45.54;95144.88;4991931;28;20211;-50
2023/03/13 06:04:28;;;;;;;10.93;4.53;;;;;;;;;;4972986;28;20193;-52
2023/03/13 06:06:56;;;;;;;7.27;5.13;;;;;;;21.98;40.55;95150.84;4973171;28;20200;-52
2023/03/13 06:09:23;;;;;;;10.97;6.37;;;;;;;22.44;36.47;95157.94;4973254;28;20234;-52
2023/03/13 06:11:50;;;;;;;9.63;5.32;;;;;;;22.93;36.67;95160.16;4972971;28;20209;-52
2023/03/13 06:14:17;;;;;;;7.53;5.05;;;;;;;23.47;37.35;95151.19;4980061;28;20677;-49
2023/03/13 06:16:44;;;;;;;9.35;5.80;;;;;;;24.00;37.94;95148.34;4991863;28;20197;-53
2023/03/13 06:19:11;;;;;;;8.52;5.65;;;;;;;24.54;38.28;95148.84;4992870;28;20189;-52
2023/03/13 06:21:38;;;;;;;11.65;5.93;;;;;;;25.07;35.18;95144.97;4990517;28;20201;-52
2023/03/13 06:24:06;;;;;;;9.82;5.57;;;;;;;25.47;32.42;95145.34;4995742;28;20207;-51
2023/03/13 06:26:33;;;;;;;9.13;5.28;;;;;;;25.79;31.17;95148.63;4986182;28;20204;-51
2023/03/13 06:29:00;;;;;;;5.55;4.45;;;;;;;25.91;29.69;95130.34;4980204;28;20216;-51
2023/03/13 06:31:27;;;;;;;6.07;4.50;;;;;;;26.27;28.35;95153.81;4990417;28;20204;-49
2023/03/13 06:33:54;;;;;;;5.47;3.60;;;;;;;26.51;27.31;95148.63;4991378;28;20974;-47
2023/03/13 06:36:21;;;;;;;4.63;3.67;;;;;;;26.72;26.18;95139.44;4990853;28;20201;-49
2023/03/13 06:38:48;;;;;;;4.55;3.88;;;;;;;26.91;25.86;95137.50;4991311;28;20672;-48
2023/03/13 06:41:16;;;;;;;4.78;3.80;;;;;;;27.12;25.69;95136.16;4990724;28;20203;-50
2023/03/13 06:43:44;;;;;;;4.60;3.63;;;;;;;27.32;25.63;95135.78;4990788;28;20216;-48
2023/03/13 06:46:17;;;;;;;6.00;4.00;;;;;;;27.52;26.23;95139.63;4990874;28;20200;-53
2023/03/13 06:48:45;;;;;;;4.28;3.60;;;;;;;27.64;27.04;95142.22;4990011;28;20283;-53
2023/03/13 06:51:12;;;;;;;5.75;3.72;;;;;;;27.69;28.27;95150.22;4990665;28;20205;-50
2023/03/13 06:53:39;;;;;;;10.57;3.78;;;;;;;27.75;29.22;95153.75;4990422;28;20251;-50
2023/03/13 06:56:07;;;;;;;7.75;4.07;;;;;;;27.81;29.81;95141.50;4990639;28;20303;-53
2023/03/13 06:58:36;;;;;;;7.07;4.00;;;;;;;27.84;29.92;95144.47;4990210;28;20216;-48
2023/03/13 07:01:07;;;;;;;6.28;4.10;;;;;;;27.88;30.11;95147.44;4990838;28;20197;-47
2023/03/13 07:03:34;;;;;;;4.63;4.15;;;;;;;27.94;30.50;95141.25;4987586;28;20263;-49
2023/03/13 07:06:01;;;;;;;6.45;4.38;;;;;;;28.03;30.31;95137.19;4990431;28;20692;-54
2023/03/13 07:08:28;;;;;;;5.68;4.72;;;;;;;28.05;30.37;95129.88;4989951;28;20317;-52
2023/03/13 07:10:59;;;;;;;5.85;4.38;;;;;;;28.15;30.84;95145.00;4990472;28;20244;-51
2023/03/13 07:13:27;;;;;;;8.48;4.95;;;;;;;28.17;30.92;95151.66;4989881;28;20193;-49
2023/03/13 07:15:55;;;;;;;4.53;3.80;;;;;;;28.26;30.76;95144.16;4990280;28;20979;-51
2023/03/13 07:18:23;;;;;;;8.20;4.40;;;;;;;28.33;31.18;95144.03;4989058;28;20298;-49
2023/03/13 07:20:54;;;;;;;6.35;5.55;;;;;;;28.35;31.28;95129.63;4990269;28;20196;-52
2023/03/13 07:23:21;;;;;;;10.00;5.72;;;;;;;28.36;31.36;95138.31;4989162;28;20740;-50
2023/03/13 07:25:54;;;;;;;9.70;5.63;;;;;;;28.37;31.52;95135.47;4989908;28;20724;-51
2023/03/13 07:28:21;;;;;;;5.55;4.88;;;;;;;28.39;30.83;95137.84;4989683;28;20232;-47
2023/03/13 07:30:49;;;;;;;5.78;4.70;;;;;;;28.40;31.53;95134.16;4990307;28;20178;-46
2023/03/13 07:33:18;;;;;;;7.68;5.45;;;;;;;28.41;31.06;95135.75;4990773;28;20185;-47
2023/03/13 07:35:49;;;;;;;6.13;5.25;;;;;;;28.41;30.65;95139.22;4989276;28;20251;-45
2023/03/13 07:38:16;;;;;;;12.57;5.13;;;;;;;28.43;31.12;95133.69;4990128;28;20216;-49
2023/03/13 07:40:48;;;;;;;6.00;5.40;;;;;;;28.46;30.54;95136.66;4989135;28;20243;-46
2023/03/13 07:43:15;;;;;;;8.25;5.18;;;;;;;28.48;30.68;95142.47;4987571;28;20272;-46
2023/03/13 07:45:51;;;;;;;6.18;5.18;;;;;;;28.48;30.17;95147.72;4989300;28;20220;-46
2023/03/13 07:48:19;;;;;;;5.57;4.50;;;;;;;28.42;30.27;95134.75;4986953;28;20235;-49
2023/03/13 07:50:46;;;;;;;5.68;4.85;;;;;;;28.44;29.93;95138.72;4986921;28;20626;-49
2023/03/13 07:53:19;;;;;;;8.02;5.55;;;;;;;28.41;30.06;95139.22;4988818;28;20189;-46
2023/03/13 07:55:52;;;;;;;8.55;5.15;;;;;;;28.39;29.71;95132.56;4988590;28;20232;-47
2023/03/13 07:58:19;;;;;;;6.68;4.80;;;;;;;28.33;29.75;95138.78;4987813;28;20650;-46
2023/03/13 08:00:46;;;;;;;6.47;4.75;;;;;;;28.16;29.63;95107.97;4988773;28;20255;-49
2023/03/13 08:03:13;;;;;;;18.02;10.13;;;;;;;28.23;29.33;95127.00;4989005;28;20205;-45
2023/03/13 08:05:41;;;;;;;13.15;7.60;;;;;;;28.17;28.94;95117.47;4988689;28;20184;-46
2023/03/13 08:08:08;;;;;;;9.77;6.00;;;;;;;28.09;28.65;95117.03;4985963;28;20189;-45
2023/03/13 08:10:35;;;;;;;8.75;6.55;;;;;;;28.01;28.46;95118.22;4986432;28;20232;-50
2023/03/13 08:13:02;;;;;;;9.57;6.20;;;;;;;27.92;29.10;95117.00;4985908;28;20197;-52
2023/03/13 08:15:29;;;;;;;7.90;6.18;;;;;;;27.78;28.92;95105.97;4987516;28;20193;-46
2023/03/13 08:17:56;;;;;;;10.27;6.15;;;;;;;27.75;28.93;95112.50;4985198;28;20303;-48
2023/03/13 08:20:23;;;;;;;11.55;5.88;;;;;;;27.67;27.58;95115.47;4988459;28;20196;-50
2023/03/13 08:22:52;;;;;;;6.95;5.38;;;;;;;27.61;27.92;95118.25;4988876;28;20193;-55
2023/03/13 08:25:18;;;;;;;6.15;5.55;;;;;;;27.57;25.75;95117.91;4988540;28;20197;-55
2023/03/13 08:27:45;;;;;;;8.10;5.97;;;;;;;27.46;26.75;95134.47;4988551;28;20693;-50
2023/03/13 08:30:13;;;;;;;12.15;5.22;;;;;;;27.44;27.46;95132.09;4988597;28;20731;-51
2023/03/13 08:32:40;;;;;;;6.70;4.93;;;;;;;27.47;27.41;95131.66;4987875;28;20283;-48
2023/03/13 08:35:08;;;;;;;7.97;4.88;;;;;;;27.55;27.72;95137.56;4988538;28;20185;-56
2023/03/13 08:37:34;;;;;;;9.00;4.93;;;;;;;27.58;28.00;95137.88;4988086;28;20208;-51
2023/03/13 08:40:08;;;;;;;10.30;5.03;;;;;;;27.59;27.76;95139.50;4988965;28;20292;-48
2023/03/13 08:42:36;;;;;;;10.00;4.78;;;;;;;27.59;27.72;95141.31;4988507;28;20223;-49
2023/03/13 08:45:04;;;;;;;6.93;4.63;;;;;;;27.56;28.30;95129.44;4988728;28;20228;-53
2023/03/13 08:47:31;;;;;;;7.68;5.22;;;;;;;27.55;28.08;95132.28;4988200;28;20197;-54
2023/03/13 08:49:58;;;;;;;6.43;4.75;;;;;;;27.50;28.62;95123.31;4988261;28;20561;-53
2023/03/13 08:52:25;;;;;;;5.47;4.85;;;;;;;27.47;28.28;95122.97;4988069;28;20281;-50
2023/03/13 08:54:52;;;;;;;5.10;4.40;;;;;;;27.40;28.23;95123.09;4988344;28;20196;-53
2023/03/13 08:57:20;;;;;;;6.50;5.15;;;;;;;27.35;27.81;95125.63;4986871;28;20197;-53
2023/03/13 08:59:48;;;;;;;6.25;5.03;;;;;;;27.10;29.01;95115.38;4985716;28;20192;-45
2023/03/13 09:02:18;;;;;;;5.72;5.00;;;;;;;26.86;29.19;95119.03;4987073;28;20199;-46
2023/03/13 09:04:48;;;;;;;7.10;5.03;;;;;;;26.59;29.64;95118.66;4988725;28;20654;-46
2023/03/13 09:07:15;;;;;;;5.53;4.63;;;;;;;26.34;30.18;95118.81;4990787;28;20275;-52
2023/03/13 09:09:43;;;;;;;6.05;4.50;;;;;;;26.11;30.54;95119.56;4992270;28;20267;-46
2023/03/13 09:12:10;;;;;;;8.10;4.72;;;;;;;25.91;31.40;95120.66;4992526;28;20197;-54
2023/03/13 09:14:38;;;;;;;6.53;4.57;;;;;;;25.71;31.41;95117.47;4992229;28;20197;-46
2023/03/13 09:17:05;;;;;;;7.30;5.10;;;;;;;25.52;32.38;95112.25;4991985;28;20189;-45
2023/03/13 09:19:33;;;;;;;8.95;5.43;;;;;;;25.31;32.61;95101.44;4991525;28;20889;-45
2023/03/13 09:22:00;;;;;;;5.35;4.50;;;;;;;25.09;32.71;95095.84;4990666;28;20193;-45
2023/03/13 09:24:27;;;;;;;6.07;4.53;;;;;;;25.00;33.30;95105.78;4991874;28;20311;-46
2023/03/13 09:26:53;;;;;;;7.53;4.90;;;;;;;24.86;33.33;95104.28;4992244;28;20239;-49
2023/03/13 09:29:20;;;;;;;5.55;4.78;;;;;;;24.75;33.58;95105.81;4991884;28;20225;-46
2023/03/13 09:31:48;;;;;;;8.90;4.85;;;;;;;24.64;33.69;95106.50;4992093;28;20672;-45
2023/03/13 09:34:15;;;;;;;5.72;5.15;;;;;;;24.52;33.56;95114.25;4991674;28;20244;-47
2023/03/13 09:36:42;;;;;;;5.68;4.68;;;;;;;24.38;33.80;95107.53;4991834;28;20201;-46
2023/03/13 09:39:09;;;;;;;7.10;4.70;;;;;;;24.21;34.17;95102.00;4991689;28;20193;-44
2023/03/13 09:41:40;;;;;;;5.35;4.40;;;;;;;24.12;34.20;95111.09;4992021;28;20201;-46
2023/03/13 09:44:18;;;;;;;6.82;4.82;;;;;;;23.95;34.40;95103.78;4991810;28;20197;-50
2023/03/13 09:46:56;;;;;;;5.22;4.72;;;;;;;23.78;34.53;95093.00;4990328;28;20788;-48
2023/03/13 09:49:30;;;;;;;8.00;4.45;;;;;;;23.67;34.80;95087.69;4991282;28;20321;-46
2023/03/13 09:52:05;;;;;;;5.95;4.72;;;;;;;23.54;35.00;95088.50;4991966;28;20303;-46
2023/03/13 09:54:38;;;;;;;10.15;5.15;;;;;;;23.44;35.63;95090.75;4991276;28;20574;-49
2023/03/13 09:57:13;;;;;;;11.73;5.13;;;;;;;23.35;35.65;95086.78;4991359;28;20291;-45
2023/03/13 09:59:47;;;;;;;7.43;4.20;;;;;;;23.30;36.01;95090.00;4991122;28;20692;-45
2023/03/13 10:02:25;;;;;;;6.75;4.10;;;;;;;23.22;36.07;95093.63;4991773;28;20321;-46
2023/03/13 10:04:56;;;;;;;6.32;4.35;;;;;;;23.15;36.38;95084.25;4991738;28;20193;-51
2023/03/13 10:07:23;;;;;;;4.47;4.05;;;;;;;23.10;36.44;95081.44;4991113;28;20205;-48
2023/03/13 10:09:52;;;;;;;6.57;4.40;;;;;;;23.07;36.50;95084.47;4991814;28;20221;-49
2023/03/13 10:12:21;;;;;;;4.25;3.85;;;;;;;23.01;36.78;95081.69;4991892;28;20201;-50
2023/03/13 10:15:12;;;;;;;5.68;4.75;;;;;;;22.97;36.81;95069.22;4991261;28;20660;-46
2023/03/13 10:17:41;;;;;;;4.40;4.00;;;;;;;22.92;36.80;95058.63;4990708;28;20185;-51
2023/03/13 10:20:21;;;;;;;6.00;4.57;;;;;;;22.87;36.89;95053.19;4991092;28;20205;-49
2023/03/13 10:22:51;;;;;;;5.95;4.40;;;;;;;22.84;37.15;95051.81;4990813;28;20200;-49
2023/03/13 10:25:27;;;;;;;6.82;5.13;;;;;;;22.75;36.92;95047.78;4990837;28;20189;-47
2023/03/13 10:27:54;;;;;;;5.75;4.63;;;;;;;22.75;36.95;95047.78;4988960;28;20701;-51
2023/03/13 10:30:24;;;;;;;5.78;4.20;;;;;;;22.70;37.29;95043.19;4990784;28;20217;-49
2023/03/13 10:32:54;;;;;;;4.50;4.10;;;;;;;22.67;37.24;95035.81;4988709;28;20224;-46
2023/03/13 10:35:23;;;;;;;4.80;4.30;;;;;;;22.62;37.52;95034.78;4990797;28;20285;-47
2023/03/13 10:37:50;;;;;;;6.85;4.38;;;;;;;22.59;37.23;95025.59;4990537;28;20642;-54
2023/03/13 10:40:22;;;;;;;5.80;4.15;;;;;;;22.55;37.44;95019.19;4990997;28;20204;-46
2023/03/13 10:42:51;;;;;;;5.68;4.25;;;;;;;22.56;37.64;95020.78;4990356;28;20652;-47
2023/03/13 10:45:20;;;;;;;7.78;4.22;;;;;;;22.56;37.58;95019.97;4990701;28;20196;-46
2023/03/13 10:47:56;;;;;;;5.38;4.15;;;;;;;22.53;37.64;95013.34;4990025;28;20203;-51
2023/03/13 10:50:25;;;;;;;5.88;4.40;;;;;;;22.52;37.48;95016.97;4988653;28;20216;-47
2023/03/13 10:52:53;;;;;;;5.20;4.05;;;;;;;22.53;37.49;95021.97;4990279;28;20193;-50
2023/03/13 10:55:22;;;;;;;4.80;4.30;;;;;;;22.52;37.54;95012.56;4990158;28;20228;-47
2023/03/13 10:57:57;;;;;;;5.45;4.28;;;;;;;22.51;37.73;95013.56;4991666;28;20318;-48
2023/03/13 11:00:30;;;;;;;4.65;4.25;;;;;;;22.49;37.53;95009.53;4990728;28;20189;-47
2023/03/13 11:02:58;;;;;;;5.82;4.28;;;;;;;22.47;37.77;95007.16;4987460;28;20677;-46
2023/03/13 11:05:41;;;;;;;5.50;5.00;;;;;;;22.35;37.72;94974.09;4993000;28;20191;-50
2023/03/13 11:08:19;;;;;;;5.25;4.70;;;;;;;22.45;37.63;94990.09;4996875;28;20205;-52
2023/03/13 11:10:56;;;;;;;6.00;4.40;;;;;;;22.32;37.62;94961.47;4995863;28;20289;-47
2023/03/13 11:13:44;;;;;;;5.55;4.60;;;;;;;22.43;37.76;94982.50;4994947;28;20196;-49
2023/03/13 11:16:19;;;;;;;6.60;4.65;;;;;;;22.45;37.64;94983.13;4987124;28;20204;-47
2023/03/13 11:19:10;;;;;;;5.95;4.97;;;;;;;22.46;37.78;94982.09;4997893;28;20204;-46
2023/03/13 11:21:44;;;;;;;6.78;5.28;;;;;;;22.46;37.75;94971.69;4994201;28;20672;-46
2023/03/13 11:24:18;;;;;;;5.22;4.72;;;;;;;22.46;37.73;94969.06;4990782;28;20197;-44
2023/03/13 11:26:56;;;;;;;6.82;4.25;;;;;;;22.48;37.61;94967.03;4989366;28;20185;-49
2023/03/13 11:29:30;;;;;;;5.32;3.92;;;;;;;22.48;37.84;94964.44;4991224;28;20200;-48
2023/03/13 11:32:02;;;;;;;4.57;4.18;;;;;;;22.50;37.89;94965.03;5001637;28;20571;-50
2023/03/13 11:34:38;;;;;;;5.55;4.60;;;;;;;22.51;37.92;94965.84;4992320;28;20201;-49
2023/03/13 11:37:10;;;;;;;5.30;4.35;;;;;;;22.50;37.87;94957.22;4999290;28;20195;-49
2023/03/13 11:39:58;;;;;;;6.40;4.55;;;;;;;22.51;37.91;94945.78;4989923;28;20283;-48
2023/03/13 11:42:43;;;;;;;6.55;5.03;;;;;;;22.53;37.56;94948.19;4989767;28;20220;-47
2023/03/13 11:45:32;;;;;;;5.63;4.50;;;;;;;22.54;37.47;94947.19;4986899;28;20196;-48